Time;durP1;ratioP1;P1;durP2;ratioP2;P2;SDS_P1;SDS_P2;PMS_P1;PMS_P2;Temp;Humidity;BMP_temperature;BMP_pressure;BME280_temperature;BME280_humidity;BME280_pressure;Samples;Min_cycle;Max_cycle;Signal;HPM_P1;HPM_P2
2024/04/14 00:00:50;;;;;;;7.63;6.93;;;10.90;99.90;;;;;;5383814;26;20214;-67
2024/04/14 00:03:19;;;;;;;7.00;6.13;;;10.80;99.90;;;;;;5383588;26;20246;-67
2024/04/14 00:05:45;;;;;;;7.20;6.23;;;10.80;99.90;;;;;;5383666;26;20227;-67
2024/04/14 00:08:14;;;;;;;6.90;6.27;;;10.80;99.90;;;;;;5383690;26;20258;-67
2024/04/14 00:10:40;;;;;;;9.57;6.70;;;10.80;99.90;;;;;;5383674;26;20689;-67
2024/04/14 00:13:09;;;;;;;7.00;6.30;;;10.80;99.90;;;;;;5383438;26;20728;-66
2024/04/14 00:15:37;;;;;;;8.00;6.07;;;10.80;99.90;;;;;;5383799;26;20219;-65
2024/04/14 00:18:06;;;;;;;6.73;6.13;;;10.80;99.90;;;;;;5384697;26;20218;-66
2024/04/14 00:20:32;;;;;;;9.30;6.53;;;10.70;99.90;;;;;;5384495;26;20226;-66
2024/04/14 00:23:01;;;;;;;7.13;6.43;;;10.70;99.90;;;;;;5384247;26;20250;-66
2024/04/14 00:25:27;;;;;;;6.97;6.27;;;10.70;99.90;;;;;;5383801;26;20278;-66
2024/04/14 00:27:55;;;;;;;8.23;6.23;;;10.60;99.90;;;;;;5383628;26;20222;-66
2024/04/14 00:30:21;;;;;;;6.83;6.23;;;10.60;99.90;;;;;;5383696;26;20265;-67
2024/04/14 00:32:53;;;;;;;7.37;6.67;;;10.60;99.90;;;;;;5384587;26;20235;-66
2024/04/14 00:35:21;;;;;;;8.10;7.33;;;10.50;99.90;;;;;;5386317;26;20253;-67
2024/04/14 00:37:50;;;;;;;9.17;7.20;;;10.50;99.90;;;;;;5385032;26;20242;-66
2024/04/14 00:40:16;;;;;;;7.63;6.70;;;10.40;99.90;;;;;;5384281;26;20257;-66
2024/04/14 00:42:44;;;;;;;8.23;7.30;;;10.40;99.90;;;;;;5384609;26;20235;-66
2024/04/14 00:45:10;;;;;;;7.90;7.10;;;10.40;99.90;;;;;;5383382;26;20222;-66
2024/04/14 00:47:39;;;;;;;7.87;7.17;;;10.50;99.90;;;;;;5383399;26;20265;-66
2024/04/14 00:50:08;;;;;;;8.37;7.00;;;10.50;99.90;;;;;;5383431;26;20257;-66
2024/04/14 00:52:36;;;;;;;7.97;7.17;;;10.40;99.90;;;;;;5383161;26;20231;-66
2024/04/14 00:55:02;;;;;;;10.03;7.00;;;10.40;99.90;;;;;;5383137;26;20580;-66
2024/04/14 00:57:31;;;;;;;8.17;7.00;;;10.30;99.90;;;;;;5383242;26;20222;-66
2024/04/14 00:59:58;;;;;;;9.30;7.50;;;10.30;99.90;;;;;;5383025;26;20231;-66
2024/04/14 01:02:27;;;;;;;8.40;7.53;;;10.40;99.90;;;;;;5384018;26;20315;-65
2024/04/14 01:04:53;;;;;;;8.13;7.43;;;10.40;99.90;;;;;;5385188;26;20230;-67
2024/04/14 01:07:24;;;;;;;12.57;8.00;;;10.30;99.90;;;;;;5384108;26;20265;-66
2024/04/14 01:09:51;;;;;;;8.10;7.27;;;10.20;99.90;;;;;;5383615;26;20186;-66
2024/04/14 01:12:20;;;;;;;8.73;7.83;;;10.20;99.90;;;;;;5383043;26;20250;-66
2024/04/14 01:14:46;;;;;;;10.10;7.67;;;10.20;99.90;;;;;;5382882;26;20226;-66
2024/04/14 01:17:14;;;;;;;9.07;7.87;;;10.10;99.90;;;;;;5384018;26;20696;-66
2024/04/14 01:19:40;;;;;;;9.83;7.10;;;10.10;99.90;;;;;;5385194;26;20265;-67
2024/04/14 01:22:08;;;;;;;10.13;7.77;;;10.10;99.90;;;;;;5384886;26;20254;-67
2024/04/14 01:24:37;;;;;;;8.43;7.73;;;10.10;99.90;;;;;;5382937;26;20269;-66
2024/04/14 01:27:08;;;;;;;11.10;9.07;;;10.00;99.90;;;;;;5382890;26;20218;-66
2024/04/14 01:29:34;;;;;;;9.13;8.10;;;10.00;99.90;;;;;;5382891;26;20218;-66
2024/04/14 01:32:03;;;;;;;8.90;7.93;;;10.00;99.90;;;;;;5382635;26;20238;-66
2024/04/14 01:34:28;;;;;;;8.63;7.47;;;10.00;99.90;;;;;;5383746;26;20222;-66
2024/04/14 01:36:57;;;;;;;9.17;7.63;;;10.00;99.90;;;;;;5382593;26;20222;-65
2024/04/14 01:39:23;;;;;;;8.67;7.77;;;9.90;99.90;;;;;;5382589;26;20328;-65
2024/04/14 01:41:51;;;;;;;8.43;7.63;;;9.90;99.90;;;;;;5382462;26;20242;-66
2024/04/14 01:44:20;;;;;;;9.87;8.87;;;9.90;99.90;;;;;;5382140;26;20265;-67
2024/04/14 01:46:48;;;;;;;8.97;8.10;;;9.80;99.90;;;;;;5383144;26;20613;-67
2024/04/14 01:49:14;;;;;;;9.27;8.37;;;9.80;99.90;;;;;;5382650;26;20404;-66
2024/04/14 01:51:43;;;;;;;9.03;8.10;;;9.80;99.90;;;;;;5382292;26;20246;-66
2024/04/14 01:54:10;;;;;;;11.37;7.87;;;9.80;99.90;;;;;;5382457;26;20611;-67
2024/04/14 01:56:38;;;;;;;9.83;7.67;;;9.80;99.90;;;;;;5382928;26;20248;-67
2024/04/14 01:59:05;;;;;;;9.50;8.60;;;9.70;99.90;;;;;;5382879;26;20218;-66
2024/04/14 02:01:36;;;;;;;9.13;7.77;;;9.70;99.90;;;;;;5382853;26;20607;-66
2024/04/14 02:04:02;;;;;;;9.77;8.77;;;9.70;99.90;;;;;;5382394;26;20219;-66
2024/04/14 02:06:31;;;;;;;8.47;7.67;;;9.70;99.90;;;;;;5383132;26;20219;-67
2024/04/14 02:08:57;;;;;;;10.63;7.60;;;9.60;99.90;;;;;;5382751;26;20707;-67
2024/04/14 02:11:25;;;;;;;9.27;8.00;;;9.60;99.90;;;;;;5381984;26;20239;-67
2024/04/14 02:13:51;;;;;;;11.10;8.03;;;9.60;99.90;;;;;;5382192;26;20227;-67
2024/04/14 02:16:20;;;;;;;9.80;8.07;;;9.60;99.90;;;;;;5381981;26;20218;-67
2024/04/14 02:18:48;;;;;;;8.43;7.63;;;9.60;99.90;;;;;;5381611;26;20226;-67
2024/04/14 02:21:17;;;;;;;8.23;7.23;;;9.60;99.90;;;;;;5381086;26;20792;-67
2024/04/14 02:23:43;;;;;;;9.20;7.50;;;9.60;99.90;;;;;;5381609;26;20261;-67
2024/04/14 02:26:11;;;;;;;8.03;7.17;;;9.60;99.90;;;;;;5382318;26;20219;-67
2024/04/14 02:28:37;;;;;;;8.30;7.40;;;9.60;99.90;;;;;;5382550;26;20312;-66
2024/04/14 02:31:06;;;;;;;7.97;7.00;;;9.60;99.90;;;;;;5381686;26;20684;-67
2024/04/14 02:33:32;;;;;;;8.67;7.77;;;9.50;99.90;;;;;;5381477;26;20261;-67
2024/04/14 02:36:04;;;;;;;7.80;7.10;;;9.50;99.90;;;;;;5381568;26;20226;-67
2024/04/14 02:38:30;;;;;;;12.27;7.63;;;9.50;99.90;;;;;;5381445;26;20664;-67
2024/04/14 02:41:00;;;;;;;9.37;7.33;;;9.40;99.90;;;;;;5380968;26;20252;-66
2024/04/14 02:43:26;;;;;;;8.53;7.57;;;9.30;99.90;;;;;;5381774;26;20238;-66
2024/04/14 02:45:54;;;;;;;9.77;8.07;;;9.30;99.90;;;;;;5381577;26;20223;-66
2024/04/14 02:48:21;;;;;;;8.90;8.00;;;9.30;99.90;;;;;;5381584;26;20265;-66
2024/04/14 02:50:49;;;;;;;8.40;7.60;;;9.30;99.90;;;;;;5381614;26;20273;-66
2024/04/14 02:53:18;;;;;;;9.03;7.20;;;9.30;99.90;;;;;;5381245;26;20238;-66
2024/04/14 02:55:46;;;;;;;8.63;7.37;;;9.20;99.90;;;;;;5381382;26;20588;-66
2024/04/14 02:58:12;;;;;;;8.60;6.87;;;9.20;99.90;;;;;;5384127;26;20269;-66
2024/04/14 03:00:41;;;;;;;8.40;7.40;;;9.20;99.90;;;;;;5385287;26;20234;-66
2024/04/14 03:03:07;;;;;;;11.63;7.43;;;9.10;99.90;;;;;;5384612;26;20608;-66
2024/04/14 03:05:35;;;;;;;7.83;6.93;;;9.10;99.90;;;;;;5384438;26;20223;-66
2024/04/14 03:08:04;;;;;;;8.47;7.50;;;9.10;99.90;;;;;;5384606;26;20226;-66
2024/04/14 03:10:35;;;;;;;7.73;7.03;;;9.10;99.90;;;;;;5385996;26;20328;-66
2024/04/14 03:13:02;;;;;;;8.63;7.73;;;9.10;99.90;;;;;;5384383;26;20261;-67
2024/04/14 03:15:30;;;;;;;8.33;7.53;;;9.20;99.90;;;;;;5385085;26;20323;-67
2024/04/14 03:17:56;;;;;;;9.90;7.80;;;9.20;99.90;;;;;;5384739;26;20365;-66
2024/04/14 03:20:25;;;;;;;8.57;7.53;;;9.10;99.90;;;;;;5385360;26;20730;-67
2024/04/14 03:22:51;;;;;;;8.67;7.57;;;9.10;99.90;;;;;;5384480;26;20269;-67
2024/04/14 03:27:50;;;;;;;8.27;7.37;;;9.10;99.90;;;;;;5383696;26;20297;-68
2024/04/14 03:30:17;;;;;;;8.17;7.30;;;9.10;99.90;;;;;;5384961;26;20253;-68
2024/04/14 03:32:45;;;;;;;9.33;7.10;;;9.00;99.90;;;;;;5384803;26;20235;-67
2024/04/14 03:35:11;;;;;;;9.73;7.77;;;9.00;99.90;;;;;;5386195;26;20695;-68
2024/04/14 03:37:41;;;;;;;7.57;6.83;;;9.00;99.90;;;;;;5384738;26;20284;-68
2024/04/14 03:40:11;;;;;;;9.60;8.60;;;9.00;99.90;;;;;;5384865;26;20214;-68
2024/04/14 03:42:39;;;;;;;8.80;7.87;;;8.90;99.90;;;;;;5385624;26;20218;-68
2024/04/14 03:45:11;;;;;;;10.13;9.13;;;8.90;99.90;;;;;;5385040;26;20691;-68
2024/04/14 03:47:39;;;;;;;8.87;8.07;;;9.00;99.90;;;;;;5384610;26;20242;-68
2024/04/14 03:50:06;;;;;;;10.10;8.87;;;8.90;99.90;;;;;;5385023;26;20218;-69
2024/04/14 03:52:35;;;;;;;11.70;9.13;;;8.90;99.90;;;;;;5385190;26;20598;-68
2024/04/14 03:55:00;;;;;;;9.27;8.33;;;8.80;99.90;;;;;;5385494;26;20269;-68
2024/04/14 03:57:29;;;;;;;9.60;8.70;;;8.90;99.90;;;;;;5384243;26;20242;-68
2024/04/14 03:59:55;;;;;;;10.27;7.93;;;8.80;99.90;;;;;;5384591;26;20227;-68
2024/04/14 04:02:26;;;;;;;15.27;9.37;;;8.80;99.90;;;;;;5384484;26;20749;-67
2024/04/14 04:04:52;;;;;;;11.10;9.00;;;8.80;99.90;;;;;;5384332;26;20268;-68
2024/04/14 04:07:20;;;;;;;11.20;8.97;;;8.80;99.90;;;;;;5384019;26;20231;-67
2024/04/14 04:09:46;;;;;;;10.53;8.47;;;8.80;99.90;;;;;;5384779;26;20265;-69
2024/04/14 04:12:15;;;;;;;12.37;9.53;;;8.80;99.90;;;;;;5384114;26;20234;-69
2024/04/14 04:14:40;;;;;;;9.77;8.73;;;8.80;99.90;;;;;;5385152;26;20253;-68
2024/04/14 04:17:09;;;;;;;10.77;9.07;;;8.80;99.90;;;;;;5385207;26;20238;-68
2024/04/14 04:19:37;;;;;;;11.23;9.93;;;8.80;99.90;;;;;;5384769;26;20226;-68
2024/04/14 04:22:06;;;;;;;10.10;9.10;;;8.80;99.90;;;;;;5386355;26;20676;-67
2024/04/14 04:24:32;;;;;;;9.20;8.27;;;8.80;99.90;;;;;;5383972;26;20261;-68
2024/04/14 04:27:01;;;;;;;10.30;9.23;;;8.90;99.90;;;;;;5383672;26;20242;-68
2024/04/14 04:29:28;;;;;;;9.33;8.43;;;8.90;99.90;;;;;;5384022;26;20257;-68
2024/04/14 04:31:57;;;;;;;9.07;8.17;;;8.90;99.90;;;;;;5383911;26;20223;-68
2024/04/14 04:34:23;;;;;;;11.60;10.03;;;8.90;99.90;;;;;;5383759;26;20230;-68
2024/04/14 04:36:55;;;;;;;10.93;9.80;;;8.90;99.90;;;;;;5385234;26;20723;-68
2024/04/14 04:39:20;;;;;;;9.23;8.27;;;9.00;99.90;;;;;;5384246;26;20269;-68
2024/04/14 04:41:49;;;;;;;11.23;8.60;;;9.00;99.90;;;;;;5385295;26;20219;-68
2024/04/14 04:44:15;;;;;;;12.00;9.97;;;9.00;99.90;;;;;;5384153;26;20222;-68
2024/04/14 04:46:43;;;;;;;10.73;9.57;;;9.10;99.90;;;;;;5384389;26;20257;-68
2024/04/14 04:49:09;;;;;;;10.93;9.13;;;9.10;99.90;;;;;;5384115;26;20565;-68
2024/04/14 04:51:38;;;;;;;11.90;9.47;;;9.20;99.90;;;;;;5383737;26;20219;-68
2024/04/14 04:54:06;;;;;;;9.27;8.37;;;9.20;99.90;;;;;;5383540;26;20260;-68
2024/04/14 04:56:35;;;;;;;11.73;8.43;;;9.20;99.90;;;;;;5384616;26;20324;-67
2024/04/14 04:59:01;;;;;;;9.57;8.57;;;9.10;99.90;;;;;;5383560;26;20222;-67
2024/04/14 05:01:29;;;;;;;8.57;7.67;;;9.00;99.90;;;;;;5383952;26;20226;-68
2024/04/14 05:03:55;;;;;;;8.10;7.30;;;9.00;99.90;;;;;;5383348;26;20222;-68
2024/04/14 05:06:24;;;;;;;7.63;6.90;;;9.00;99.90;;;;;;5383917;26;20242;-67
2024/04/14 05:08:50;;;;;;;11.20;8.00;;;9.00;99.90;;;;;;5384590;26;20223;-68
2024/04/14 05:11:21;;;;;;;8.23;7.27;;;9.00;99.90;;;;;;5383841;26;20718;-68
2024/04/14 05:13:47;;;;;;;8.27;7.47;;;9.00;99.90;;;;;;5383248;26;20214;-68
2024/04/14 05:16:15;;;;;;;8.40;7.17;;;9.00;99.90;;;;;;5383147;26;20242;-68
2024/04/14 05:18:41;;;;;;;9.20;7.83;;;9.10;99.90;;;;;;5383247;26;20227;-68
2024/04/14 05:21:10;;;;;;;8.40;7.60;;;9.20;99.90;;;;;;5382945;26;20219;-67
2024/04/14 05:23:36;;;;;;;10.97;7.40;;;9.30;99.90;;;;;;5383543;26;20218;-68
2024/04/14 05:26:04;;;;;;;10.17;6.77;;;9.40;99.90;;;;;;5382949;26;20239;-69
2024/04/14 05:28:33;;;;;;;8.73;7.23;;;9.40;99.90;;;;;;5383355;26;20234;-68
2024/04/14 05:31:01;;;;;;;10.13;7.63;;;9.60;99.90;;;;;;5383356;26;20218;-68
2024/04/14 05:33:27;;;;;;;8.57;7.77;;;9.60;99.90;;;;;;5383198;26;20277;-68
2024/04/14 05:35:58;;;;;;;8.53;7.50;;;9.70;99.90;;;;;;5384883;26;20239;-68
2024/04/14 05:38:24;;;;;;;7.93;7.13;;;9.80;99.90;;;;;;5383141;26;20215;-67
2024/04/14 05:40:52;;;;;;;8.53;7.73;;;9.90;99.90;;;;;;5382993;26;20230;-67
2024/04/14 05:43:18;;;;;;;9.00;7.23;;;10.00;99.90;;;;;;5383191;26;20257;-68
2024/04/14 05:45:50;;;;;;;8.07;7.37;;;10.10;99.90;;;;;;5382467;26;20583;-69
2024/04/14 05:48:15;;;;;;;8.00;7.17;;;10.20;99.90;;;;;;5382710;26;20214;-69
2024/04/14 05:50:44;;;;;;;8.33;6.90;;;10.20;99.90;;;;;;5382487;26;20229;-69
2024/04/14 05:53:11;;;;;;;6.83;6.23;;;10.30;99.90;;;;;;5382710;26;20711;-69
2024/04/14 05:55:40;;;;;;;7.50;6.43;;;10.30;99.90;;;;;;5382474;26;20238;-68
2024/04/14 05:58:06;;;;;;;6.47;5.87;;;10.40;99.90;;;;;;5382710;26;20265;-68
2024/04/14 06:00:37;;;;;;;6.67;6.10;;;10.40;99.90;;;;;;5382772;26;20222;-68
2024/04/14 06:03:06;;;;;;;7.23;6.53;;;10.50;99.90;;;;;;5382326;26;20223;-69
2024/04/14 06:05:34;;;;;;;7.60;5.80;;;10.60;99.90;;;;;;5382384;26;20219;-68
2024/04/14 06:08:00;;;;;;;6.87;6.17;;;10.70;99.90;;;;;;5382384;26;20608;-68
2024/04/14 06:10:29;;;;;;;6.97;6.00;;;10.80;99.90;;;;;;5382739;26;20226;-68
2024/04/14 06:12:55;;;;;;;6.30;5.57;;;10.90;99.90;;;;;;5383509;26;20238;-68
2024/04/14 06:15:23;;;;;;;6.20;5.60;;;11.00;99.90;;;;;;5382054;26;20222;-68
2024/04/14 06:17:49;;;;;;;6.07;5.47;;;11.20;99.90;;;;;;5388786;26;20261;-66
2024/04/14 06:20:20;;;;;;;6.23;5.57;;;11.30;99.90;;;;;;5382981;26;20230;-67
2024/04/14 06:22:46;;;;;;;7.17;5.27;;;11.40;99.90;;;;;;5382405;26;20249;-66
2024/04/14 06:25:15;;;;;;;5.80;5.30;;;11.40;99.90;;;;;;5382393;26;20223;-68
2024/04/14 06:27:40;;;;;;;5.70;5.20;;;11.50;99.90;;;;;;5382419;26;20238;-68
2024/04/14 06:30:11;;;;;;;7.07;5.40;;;11.50;99.90;;;;;;5382154;26;20219;-67
2024/04/14 06:32:37;;;;;;;5.93;5.30;;;11.70;99.90;;;;;;5385243;26;20264;-67
2024/04/14 06:35:06;;;;;;;6.13;4.90;;;11.80;99.90;;;;;;5385171;26;20250;-67
2024/04/14 06:37:35;;;;;;;5.63;5.07;;;11.90;99.90;;;;;;5385311;26;20319;-69
2024/04/14 06:40:04;;;;;;;6.80;5.23;;;12.10;99.90;;;;;;5385182;26;20691;-69
2024/04/14 06:42:30;;;;;;;6.00;5.23;;;12.30;99.90;;;;;;5385367;26;20707;-69
2024/04/14 06:44:58;;;;;;;8.03;5.83;;;12.40;99.90;;;;;;5385028;26;20286;-68
2024/04/14 06:47:24;;;;;;;10.27;5.27;;;12.40;99.90;;;;;;5384930;26;20656;-68
2024/04/14 06:49:53;;;;;;;6.07;5.47;;;12.60;99.90;;;;;;5385081;26;20261;-69
2024/04/14 06:52:19;;;;;;;5.67;5.13;;;12.70;99.90;;;;;;5384940;26;20238;-69
2024/04/14 06:54:50;;;;;;;6.43;5.03;;;12.90;99.90;;;;;;5384825;26;20273;-70
2024/04/14 06:57:16;;;;;;;6.43;4.87;;;13.10;99.90;;;;;;5384844;26;20230;-68
2024/04/14 06:59:45;;;;;;;6.43;5.60;;;13.30;99.90;;;;;;5384863;26;20230;-69
2024/04/14 07:02:10;;;;;;;5.53;4.60;;;13.50;99.90;;;;;;5384884;26;20751;-69
2024/04/14 07:04:39;;;;;;;6.07;4.83;;;13.80;99.90;;;;;;5384760;26;20222;-69
2024/04/14 07:07:05;;;;;;;4.80;4.50;;;14.00;99.90;;;;;;5384583;26;20264;-69
2024/04/14 07:09:34;;;;;;;5.73;4.43;;;14.30;99.90;;;;;;5384622;26;20219;-69
2024/04/14 07:12:03;;;;;;;4.87;4.40;;;14.50;99.90;;;;;;5385763;26;20257;-69
2024/04/14 07:14:31;;;;;;;4.73;4.27;;;14.70;99.90;;;;;;5384580;26;20226;-69
2024/04/14 07:16:57;;;;;;;4.63;4.22;;;14.90;99.90;;;;;;5384492;26;20239;-69
2024/04/14 07:19:26;;;;;;;5.72;4.63;;;15.00;99.90;;;;;;5384527;26;20290;-70
2024/04/14 07:21:52;;;;;;;4.15;3.85;;;15.20;99.90;;;;;;5384666;26;20226;-70
2024/04/14 07:24:25;;;;;;;4.85;4.45;;;15.40;99.90;;;;;;5384922;26;20265;-70
2024/04/14 07:26:51;;;;;;;4.43;4.03;;;15.50;99.90;;;;;;5384814;26;20252;-69
2024/04/14 07:29:22;;;;;;;5.30;4.57;;;15.70;99.90;;;;;;5384632;26;20584;-69
2024/04/14 07:31:48;;;;;;;4.50;4.10;;;15.80;99.90;;;;;;5384367;26;20250;-70
2024/04/14 07:34:16;;;;;;;7.13;4.00;;;16.10;98.50;;;;;;5384203;26;20234;-70
2024/04/14 07:36:43;;;;;;;5.85;3.80;;;16.20;1.00;;;;;;5384079;26;20234;-70
2024/04/14 07:39:12;;;;;;;5.07;4.40;;;16.40;1.00;;;;;;5384266;26;20226;-70
2024/04/14 07:41:37;;;;;;;4.22;3.83;;;16.60;1.00;;;;;;5384247;26;20230;-70
2024/04/14 07:44:06;;;;;;;5.50;4.47;;;16.80;1.00;;;;;;5383344;26;20226;-70
2024/04/14 07:46:35;;;;;;;4.68;4.28;;;17.00;1.00;;;;;;5384126;26;20318;-70
2024/04/14 07:49:03;;;;;;;4.40;4.00;;;17.20;99.90;;;;;;5384172;26;20218;-70
2024/04/14 07:51:29;;;;;;;4.65;4.25;;;17.40;99.90;;;;;;5384332;26;20226;-68
2024/04/14 07:53:58;;;;;;;4.93;4.43;;;17.50;1.00;;;;;;5384412;26;20230;-68
2024/04/14 07:56:26;;;;;;;6.00;4.35;;;17.70;1.00;;;;;;5384215;26;20227;-68
2024/04/14 07:58:55;;;;;;;5.13;3.33;;;17.90;1.00;;;;;;5383880;26;20278;-68
2024/04/14 08:01:21;;;;;;;5.18;4.28;;;18.10;1.00;;;;;;5384369;26;20227;-69
2024/04/14 08:03:52;;;;;;;3.70;3.30;;;18.30;1.00;;;;;;5384374;26;20256;-66
2024/04/14 08:06:18;;;;;;;3.33;3.03;;;18.50;99.90;;;;;;5384500;26;20257;-66
2024/04/14 08:08:47;;;;;;;4.55;3.00;;;18.80;29.00;;;;;;5384642;26;20230;-66
2024/04/14 08:11:13;;;;;;;4.10;2.80;;;18.80;48.60;;;;;;5384342;26;20222;-68
2024/04/14 08:13:42;;;;;;;2.92;2.67;;;19.00;1.00;;;;;;5384129;26;20222;-66
2024/04/14 08:16:08;;;;;;;3.72;2.45;;;18.90;99.90;;;;;;5384143;26;20594;-66
2024/04/14 08:18:40;;;;;;;3.63;2.58;;;18.80;1.00;;;;;;5384410;26;20230;-68
2024/04/14 08:21:08;;;;;;;5.40;2.80;;;18.90;1.00;;;;;;5384176;26;20546;-66
2024/04/14 08:23:37;;;;;;;2.83;2.38;;;19.10;1.00;;;;;;5384557;26;20218;-68
2024/04/14 08:26:05;;;;;;;4.03;2.67;;;19.10;99.90;;;;;;5383790;26;20612;-70
2024/04/14 08:28:33;;;;;;;2.60;2.40;;;19.20;1.00;;;;;;5384073;26;20301;-68
2024/04/14 08:30:59;;;;;;;3.08;2.78;;;19.20;99.90;;;;;;5383654;26;20222;-68
2024/04/14 08:33:28;;;;;;;3.13;2.83;;;19.40;99.90;;;;;;5384094;26;20691;-66
2024/04/14 08:35:54;;;;;;;5.97;2.75;;;19.50;99.90;;;;;;5383730;26;20238;-70
2024/04/14 08:38:25;;;;;;;3.30;2.70;;;19.60;99.90;;;;;;5384064;26;20273;-67
2024/04/14 08:40:52;;;;;;;3.90;2.50;;;19.60;1.00;;;;;;5384408;26;20214;-68
2024/04/14 08:43:22;;;;;;;3.10;2.80;;;19.50;1.00;;;;;;5383960;26;20265;-66
2024/04/14 08:45:48;;;;;;;3.03;2.70;;;19.70;1.00;;;;;;5383941;26;20613;-67
2024/04/14 08:48:19;;;;;;;4.47;2.72;;;19.70;1.00;;;;;;5384185;26;20264;-67
2024/04/14 08:50:50;;;;;;;3.13;2.78;;;19.80;1.00;;;;;;5383779;26;20214;-66
2024/04/14 08:53:21;;;;;;;4.90;2.70;;;19.90;1.00;;;;;;5384256;26;20703;-66
2024/04/14 08:55:49;;;;;;;3.35;2.75;;;19.90;1.00;;;;;;5384750;26;20265;-68
2024/04/14 08:58:20;;;;;;;3.00;2.40;;;20.20;1.00;;;;;;5383112;26;20218;-68
2024/04/14 09:00:52;;;;;;;7.53;2.60;;;20.40;99.90;;;;;;5383139;26;20214;-68
2024/04/14 09:03:21;;;;;;;4.53;2.72;;;20.30;99.90;;;;;;5383797;26;20623;-68
2024/04/14 09:05:48;;;;;;;3.25;2.95;;;20.30;87.80;;;;;;5383758;26;20234;-67
2024/04/14 09:08:16;;;;;;;4.70;3.03;;;20.10;1.00;;;;;;5383316;26;20273;-70
2024/04/14 09:10:42;;;;;;;2.78;2.58;;;20.30;99.90;;;;;;5384015;26;20253;-69
2024/04/14 09:13:17;;;;;;;3.05;2.83;;;20.20;22.10;;;;;;5383728;26;20226;-69
2024/04/14 09:15:43;;;;;;;3.35;3.05;;;20.50;1.00;;;;;;5383628;26;20291;-67
2024/04/14 09:18:12;;;;;;;3.03;2.72;;;20.80;1.00;;;;;;5383099;26;20226;-66
2024/04/14 09:20:39;;;;;;;4.13;2.92;;;20.80;1.00;;;;;;5383411;26;20683;-68
2024/04/14 09:23:07;;;;;;;2.90;2.70;;;20.80;1.00;;;;;;5383311;26;20231;-67
2024/04/14 09:25:35;;;;;;;3.78;2.67;;;20.70;1.00;;;;;;5382813;26;20226;-66
2024/04/14 09:30:34;;;;;;;3.92;2.85;;;20.70;1.00;;;;;;5439769;21;20333;-68
2024/04/14 09:33:00;;;;;;;3.42;3.13;;;20.90;1.00;;;;;;5417596;26;20279;-69
2024/04/14 09:35:29;;;;;;;4.47;3.55;;;21.00;1.00;;;;;;5417723;26;20229;-69
2024/04/14 09:37:55;;;;;;;5.50;2.92;;;21.10;99.90;;;;;;5418185;26;20226;-69
2024/04/14 09:40:25;;;;;;;3.58;2.83;;;21.20;99.90;;;;;;5418172;26;20331;-69
2024/04/14 09:42:55;;;;;;;4.13;2.55;;;21.50;99.90;;;;;;5418645;26;20346;-70
2024/04/14 09:45:26;;;;;;;3.28;2.55;;;21.60;1.00;;;;;;5418690;26;20329;-69
2024/04/14 09:47:56;;;;;;;3.03;2.72;;;21.80;60.70;;;;;;5417932;26;20213;-69
2024/04/14 09:50:26;;;;;;;4.30;3.20;;;21.80;1.00;;;;;;5417987;26;20233;-69
2024/04/14 09:52:52;;;;;;;4.18;2.83;;;22.10;69.60;;;;;;5418512;26;20272;-69
2024/04/14 09:55:22;;;;;;;3.78;2.40;;;22.40;99.90;;;;;;5417744;26;20229;-68
2024/04/14 09:57:48;;;;;;;2.83;2.58;;;22.40;1.00;;;;;;5418164;26;20315;-69
2024/04/14 10:00:17;;;;;;;3.67;2.40;;;22.80;1.00;;;;;;5418046;26;20242;-70
2024/04/14 10:02:49;;;;;;;6.68;2.80;;;23.00;1.00;;;;;;5417727;26;20225;-69
2024/04/14 10:05:21;;;;;;;4.47;2.42;;;22.60;99.90;;;;;;5418012;26;20225;-69
2024/04/14 10:07:48;;;;;;;2.85;2.53;;;22.80;1.00;;;;;;5418199;26;20186;-69
2024/04/14 10:10:19;;;;;;;2.60;2.40;;;22.50;1.00;;;;;;5417639;26;20619;-69
2024/04/14 10:12:45;;;;;;;2.95;2.50;;;22.90;35.20;;;;;;5417405;26;20270;-69
2024/04/14 10:15:16;;;;;;;4.03;2.50;;;22.90;99.90;;;;;;5417243;26;20225;-67
2024/04/14 10:17:42;;;;;;;2.47;2.28;;;22.80;99.90;;;;;;5417490;26;20252;-68
2024/04/14 10:20:15;;;;;;;2.50;2.30;;;22.50;1.00;;;;;;5417688;26;20564;-68
2024/04/14 10:22:46;;;;;;;6.55;2.47;;;22.50;1.00;;;;;;5417912;26;20674;-69
2024/04/14 10:25:22;;;;;;;3.20;2.22;;;22.70;99.90;;;;;;5417100;26;20553;-69
2024/04/14 10:27:48;;;;;;;2.40;2.20;;;23.10;99.90;;;;;;5417248;26;20216;-69
2024/04/14 10:30:22;;;;;;;3.35;2.20;;;22.80;99.90;;;;;;5417614;26;20725;-69
2024/04/14 10:33:02;;;;;;;2.40;2.20;;;23.00;99.90;;;;;;5417127;26;20213;-69
2024/04/14 10:35:28;;;;;;;3.33;2.42;;;23.00;1.00;;;;;;5417032;26;20268;-69
2024/04/14 10:37:59;;;;;;;2.15;2.03;;;23.00;1.00;;;;;;5416882;26;20280;-69
2024/04/14 10:40:25;;;;;;;2.85;1.90;;;23.20;99.90;;;;;;5416968;26;20237;-68
2024/04/14 10:42:54;;;;;;;2.88;1.90;;;24.00;99.90;;;;;;5417061;26;20264;-69
2024/04/14 10:45:28;;;;;;;3.92;2.50;;;23.60;1.00;;;;;;5417049;26;20225;-69
2024/04/14 10:47:58;;;;;;;5.65;2.42;;;23.60;91.70;;;;;;5416871;26;20256;-69
2024/04/14 10:50:25;;;;;;;2.90;2.20;;;23.90;1.00;;;;;;5416717;26;20271;-69
2024/04/14 10:52:54;;;;;;;3.85;2.58;;;23.90;1.00;;;;;;5416731;26;20221;-69
2024/04/14 10:55:23;;;;;;;2.67;2.42;;;23.50;1.00;;;;;;5417414;26;20229;-69
2024/04/14 10:57:52;;;;;;;2.40;2.20;;;24.10;99.90;;;;;;5417462;26;20746;-69
2024/04/14 11:00:18;;;;;;;2.95;1.73;;;23.60;99.90;;;;;;5418651;26;20264;-69
2024/04/14 11:02:47;;;;;;;4.78;2.05;;;23.50;99.90;;;;;;5418916;26;20226;-69
2024/04/14 11:05:13;;;;;;;2.88;2.20;;;24.30;99.90;;;;;;5419489;26;20229;-69
2024/04/14 11:07:42;;;;;;;2.85;2.10;;;24.10;99.90;;;;;;5419884;26;20273;-67
2024/04/14 11:10:09;;;;;;;6.10;2.33;;;24.00;1.00;;;;;;5419856;26;20238;-69
2024/04/14 11:12:41;;;;;;;4.68;1.90;;;24.60;1.00;;;;;;5420265;26;20585;-69
2024/04/14 11:15:09;;;;;;;2.30;1.85;;;24.70;63.40;;;;;;5416903;26;20245;-69
2024/04/14 11:17:37;;;;;;;3.13;1.98;;;24.70;99.90;;;;;;5416934;26;20328;-69
2024/04/14 11:20:05;;;;;;;2.22;2.03;;;24.70;99.90;;;;;;5419980;26;20694;-68
2024/04/14 11:22:34;;;;;;;2.30;2.10;;;24.90;99.90;;;;;;5419951;26;20233;-69
2024/04/14 11:25:00;;;;;;;2.13;1.92;;;25.30;99.90;;;;;;5420015;26;20273;-69
2024/04/14 11:27:29;;;;;;;2.13;1.90;;;25.60;1.00;;;;;;5419834;26;20217;-69
2024/04/14 11:29:57;;;;;;;1.70;1.60;;;25.60;1.00;;;;;;5419388;26;20241;-68
2024/04/14 11:32:35;;;;;;;2.45;1.95;;;25.30;99.90;;;;;;5419823;26;20213;-68
2024/04/14 11:35:02;;;;;;;1.90;1.80;;;25.30;1.00;;;;;;5419542;26;20256;-69
2024/04/14 11:37:31;;;;;;;2.58;1.60;;;25.20;1.00;;;;;;5419979;26;20271;-69
2024/04/14 11:39:58;;;;;;;3.40;2.00;;;24.90;1.00;;;;;;5419597;26;20245;-68
2024/04/14 11:42:27;;;;;;;3.55;1.85;;;25.40;1.00;;;;;;5419529;26;20229;-69
2024/04/14 11:44:52;;;;;;;3.00;2.15;;;25.80;1.00;;;;;;5419758;26;20221;-69
2024/04/14 11:47:25;;;;;;;2.35;1.52;;;26.10;1.00;;;;;;5419407;26;20260;-69
2024/04/14 11:49:51;;;;;;;4.32;1.80;;;25.40;1.00;;;;;;5419248;26;20251;-68
2024/04/14 11:52:19;;;;;;;2.00;1.80;;;24.90;1.00;;;;;;5419735;26;20578;-69
2024/04/14 11:54:45;;;;;;;4.07;1.80;;;25.30;1.00;;;;;;5419276;26;20221;-69
2024/04/14 11:57:14;;;;;;;2.08;1.85;;;26.30;1.00;;;;;;5419732;26;20237;-69
2024/04/14 11:59:39;;;;;;;2.00;1.80;;;26.10;1.00;;;;;;5419426;26;20757;-69
2024/04/14 12:02:09;;;;;;;2.22;2.08;;;26.00;1.00;;;;;;5419516;26;20229;-69
2024/04/14 12:04:37;;;;;;;1.98;1.88;;;25.90;1.00;;;;;;5419279;26;20717;-69
2024/04/14 12:07:06;;;;;;;2.40;1.80;;;25.00;1.00;;;;;;5419333;26;20699;-69
2024/04/14 12:09:32;;;;;;;3.22;1.85;;;25.00;1.00;;;;;;5419320;26;20233;-68
2024/04/14 12:12:00;;;;;;;2.35;2.10;;;24.60;1.00;;;;;;5419366;26;20225;-68
2024/04/14 12:14:26;;;;;;;3.10;1.95;;;24.00;1.00;;;;;;5419432;26;20597;-68
2024/04/14 12:16:56;;;;;;;2.42;1.60;;;24.50;1.00;;;;;;5419288;26;20229;-69
2024/04/14 12:19:22;;;;;;;4.93;1.73;;;24.90;1.00;;;;;;5419380;26;20234;-68
2024/04/14 12:21:53;;;;;;;1.70;1.60;;;25.20;1.00;;;;;;5419109;26;20264;-69
2024/04/14 12:24:19;;;;;;;2.05;1.77;;;25.10;1.00;;;;;;5419161;26;20222;-69
2024/04/14 12:26:48;;;;;;;2.83;1.90;;;25.60;1.00;;;;;;5418959;26;20255;-69
2024/04/14 12:29:14;;;;;;;1.90;1.80;;;25.60;1.00;;;;;;5418399;26;20264;-68
2024/04/14 12:31:42;;;;;;;2.00;1.90;;;24.90;1.00;;;;;;5419300;26;20569;-69
2024/04/14 12:34:09;;;;;;;4.82;2.72;;;24.70;1.00;;;;;;5419013;26;20249;-67
2024/04/14 12:36:38;;;;;;;7.93;3.60;;;25.10;1.00;;;;;;5418786;26;20225;-67
2024/04/14 12:39:06;;;;;;;4.13;3.50;;;25.90;1.00;;;;;;5418748;26;20238;-66
2024/04/14 12:41:36;;;;;;;1.80;1.70;;;26.60;1.00;;;;;;5419181;26;20221;-68
2024/04/14 12:44:03;;;;;;;3.05;1.70;;;26.90;1.00;;;;;;5418831;26;20726;-67
2024/04/14 12:46:31;;;;;;;1.73;1.63;;;25.90;1.00;;;;;;5418603;26;20237;-67
2024/04/14 12:48:57;;;;;;;2.05;1.85;;;25.30;1.00;;;;;;5418731;26;20261;-67
2024/04/14 12:51:26;;;;;;;2.28;2.08;;;26.10;1.00;;;;;;5418815;26;20230;-67
2024/04/14 12:53:52;;;;;;;2.65;1.80;;;25.60;1.00;;;;;;5418761;26;20218;-68
2024/04/14 12:56:25;;;;;;;3.08;2.03;;;25.30;1.00;;;;;;5418499;26;20273;-68
2024/04/14 12:58:51;;;;;;;2.80;1.67;;;26.60;1.00;;;;;;5418387;26;20253;-67